Time;durP1;ratioP1;P1;durP2;ratioP2;P2;SDS_P1;SDS_P2;PMS_P1;PMS_P2;Temp;Humidity;BMP_temperature;BMP_pressure;BME280_temperature;BME280_humidity;BME280_pressure;Samples;Min_cycle;Max_cycle;Signal;HPM_P1;HPM_P2
2023/12/30 00:02:19;;;;;;;8.20;1.70;;;7.00;99.90;;;;;;4962920;28;20117;-75
2023/12/30 00:04:45;;;;;;;8.30;1.40;;;7.00;99.90;;;;;;4963593;28;20476;-74
2023/12/30 00:07:10;;;;;;;9.27;1.45;;;7.00;99.90;;;;;;4960479;28;20458;-76
2023/12/30 00:09:37;;;;;;;4.88;1.52;;;7.00;99.90;;;;;;4965653;28;20093;-75
2023/12/30 00:12:03;;;;;;;11.77;1.80;;;7.00;99.90;;;;;;4959630;28;20134;-75
2023/12/30 00:14:28;;;;;;;10.68;1.90;;;6.90;99.90;;;;;;4953871;28;20672;-75
2023/12/30 00:16:54;;;;;;;11.75;1.40;;;7.00;99.90;;;;;;4952758;28;20558;-75
2023/12/30 00:19:19;;;;;;;12.45;1.70;;;7.00;99.90;;;;;;4956050;28;20047;-75
2023/12/30 00:21:45;;;;;;;5.32;1.50;;;6.90;99.90;;;;;;4966811;28;20058;-75
2023/12/30 00:24:11;;;;;;;11.43;1.67;;;6.90;99.90;;;;;;4958863;28;20039;-76
2023/12/30 00:26:36;;;;;;;12.80;2.05;;;6.90;99.90;;;;;;4964594;28;20045;-75
2023/12/30 00:29:02;;;;;;;10.52;1.60;;;6.90;99.90;;;;;;4962818;28;20089;-74
2023/12/30 00:31:29;;;;;;;5.32;1.85;;;6.90;99.90;;;;;;4964690;28;20035;-76
2023/12/30 00:33:59;;;;;;;10.00;1.48;;;6.90;99.90;;;;;;4959191;28;20090;-75
2023/12/30 00:36:25;;;;;;;7.80;1.80;;;6.90;99.90;;;;;;4961512;28;20097;-75
2023/12/30 00:38:54;;;;;;;12.88;1.60;;;6.90;99.90;;;;;;4960838;28;20086;-75
2023/12/30 00:41:24;;;;;;;8.80;2.10;;;6.90;99.90;;;;;;4964615;28;20042;-76
2023/12/30 00:43:49;;;;;;;12.23;2.20;;;6.90;99.90;;;;;;4973266;28;20042;-75
2023/12/30 00:46:17;;;;;;;15.55;2.05;;;6.80;99.90;;;;;;4956678;28;20440;-75
2023/12/30 00:48:42;;;;;;;10.15;1.70;;;6.80;99.90;;;;;;4959148;28;20152;-75
2023/12/30 00:51:08;;;;;;;9.25;1.95;;;6.80;99.90;;;;;;4967822;28;20116;-75
2023/12/30 00:53:33;;;;;;;11.05;1.80;;;6.80;99.90;;;;;;4955628;28;20047;-75
2023/12/30 00:55:59;;;;;;;9.80;1.70;;;6.80;99.90;;;;;;4965126;28;20043;-76
2023/12/30 00:58:24;;;;;;;8.98;1.70;;;6.80;99.90;;;;;;4967987;28;20039;-75
2023/12/30 01:00:50;;;;;;;11.65;1.80;;;6.80;99.90;;;;;;4961470;28;20122;-76
2023/12/30 01:03:16;;;;;;;8.60;2.00;;;6.80;99.90;;;;;;4983822;28;20039;-76
2023/12/30 01:05:43;;;;;;;8.50;2.00;;;6.80;99.90;;;;;;4963983;28;20114;-75
2023/12/30 01:08:08;;;;;;;7.03;1.73;;;6.80;99.90;;;;;;4968040;28;20038;-75
2023/12/30 01:10:34;;;;;;;9.20;1.95;;;6.70;99.90;;;;;;4963963;28;20101;-75
2023/12/30 01:13:00;;;;;;;9.07;1.65;;;6.70;99.90;;;;;;4971153;28;20125;-75
2023/12/30 01:15:25;;;;;;;11.05;1.73;;;6.70;99.90;;;;;;4953501;28;20043;-75
2023/12/30 01:17:51;;;;;;;10.40;1.70;;;6.70;99.90;;;;;;4953797;28;20050;-76
2023/12/30 01:20:16;;;;;;;13.38;1.92;;;6.70;99.90;;;;;;4966258;28;20553;-75
2023/12/30 01:22:42;;;;;;;7.80;1.88;;;6.70;99.90;;;;;;4942644;28;20044;-76
2023/12/30 01:25:08;;;;;;;12.05;2.13;;;6.70;99.90;;;;;;4961131;28;20090;-75
2023/12/30 01:27:34;;;;;;;13.55;1.98;;;6.70;99.90;;;;;;4977731;28;20772;-75
2023/12/30 01:29:59;;;;;;;10.45;1.60;;;6.70;99.90;;;;;;4963577;28;20122;-75
2023/12/30 01:32:25;;;;;;;7.80;1.40;;;6.60;99.90;;;;;;4969395;28;20118;-75
2023/12/30 01:34:50;;;;;;;8.30;1.40;;;6.60;99.90;;;;;;4959671;28;20046;-76
2023/12/30 01:37:16;;;;;;;9.68;2.20;;;6.60;99.90;;;;;;4957709;28;20467;-75
2023/12/30 01:39:41;;;;;;;11.15;1.65;;;6.60;99.90;;;;;;4959208;28;20125;-74
2023/12/30 01:42:07;;;;;;;10.07;2.38;;;6.60;99.90;;;;;;4974442;28;20592;-76
2023/12/30 01:44:32;;;;;;;5.80;1.58;;;6.60;99.90;;;;;;4983110;28;20116;-76
2023/12/30 01:46:59;;;;;;;11.38;1.55;;;6.60;99.90;;;;;;4982315;28;20043;-75
2023/12/30 01:49:25;;;;;;;11.15;3.72;;;6.60;99.90;;;;;;4962307;28;20043;-76
2023/12/30 01:51:52;;;;;;;10.77;1.58;;;6.60;99.90;;;;;;4978549;28;20066;-75
2023/12/30 01:54:19;;;;;;;9.00;1.60;;;6.60;99.90;;;;;;4959058;28;20109;-76
2023/12/30 01:56:44;;;;;;;10.48;1.77;;;6.60;99.90;;;;;;4960804;28;20437;-74
2023/12/30 01:59:11;;;;;;;9.57;2.13;;;6.60;99.90;;;;;;4962923;28;20046;-75
2023/12/30 02:01:37;;;;;;;7.13;1.60;;;6.50;99.90;;;;;;4957214;28;20066;-75
2023/12/30 02:04:03;;;;;;;10.23;1.58;;;6.50;99.90;;;;;;4953602;28;20502;-76
2023/12/30 02:06:28;;;;;;;8.60;1.77;;;6.50;99.90;;;;;;4953912;28;20414;-75
2023/12/30 02:08:54;;;;;;;8.77;1.48;;;6.50;99.90;;;;;;4956562;28;20045;-76
2023/12/30 02:11:20;;;;;;;11.60;2.05;;;6.60;99.90;;;;;;4960363;28;20043;-76
2023/12/30 02:13:45;;;;;;;7.05;1.63;;;6.60;99.90;;;;;;4962592;28;20074;-75
2023/12/30 02:16:11;;;;;;;8.32;1.90;;;6.60;99.90;;;;;;4960061;28;20505;-75
2023/12/30 02:18:38;;;;;;;11.27;2.00;;;6.60;99.90;;;;;;4959696;28;20082;-76
2023/12/30 02:21:04;;;;;;;15.05;2.83;;;6.60;99.90;;;;;;4966108;28;20041;-77
2023/12/30 02:23:29;;;;;;;11.93;1.88;;;6.60;99.90;;;;;;4971036;28;20042;-76
2023/12/30 02:25:55;;;;;;;9.02;1.63;;;6.50;99.90;;;;;;4958474;28;20042;-75
2023/12/30 02:28:20;;;;;;;15.18;1.80;;;6.50;99.90;;;;;;4955803;28;20098;-76
2023/12/30 02:30:46;;;;;;;14.15;2.30;;;6.50;99.90;;;;;;4959918;28;20569;-76
2023/12/30 02:33:11;;;;;;;6.38;2.38;;;6.50;99.90;;;;;;4969930;28;20069;-76
2023/12/30 02:35:37;;;;;;;9.52;1.60;;;6.50;99.90;;;;;;4958136;28;20110;-76
2023/12/30 02:38:02;;;;;;;9.15;2.33;;;6.40;99.90;;;;;;4958243;28;20120;-76
2023/12/30 02:40:28;;;;;;;13.02;1.77;;;6.50;99.90;;;;;;4959255;28;20573;-76
2023/12/30 02:42:54;;;;;;;9.57;1.80;;;6.40;99.90;;;;;;4969807;28;20603;-76
2023/12/30 02:45:19;;;;;;;6.70;1.75;;;6.40;99.90;;;;;;4955519;28;20497;-76
2023/12/30 02:47:45;;;;;;;9.65;1.83;;;6.40;99.90;;;;;;4959229;28;20039;-76
2023/12/30 02:50:10;;;;;;;8.80;1.40;;;6.40;99.90;;;;;;4967701;28;20046;-76
2023/12/30 02:52:36;;;;;;;10.70;2.17;;;6.40;99.90;;;;;;4962539;28;20046;-76
2023/12/30 02:55:03;;;;;;;13.60;1.67;;;6.40;99.90;;;;;;4959074;28;20047;-76
2023/12/30 02:57:29;;;;;;;12.50;1.70;;;6.40;99.90;;;;;;4960144;28;20046;-76
2023/12/30 02:59:55;;;;;;;13.82;2.47;;;6.40;99.90;;;;;;4958896;28;20046;-76
2023/12/30 03:02:20;;;;;;;8.13;1.52;;;6.40;99.90;;;;;;4944442;28;20037;-76
2023/12/30 03:04:46;;;;;;;9.45;2.03;;;6.40;99.90;;;;;;4967212;28;20451;-76
2023/12/30 03:07:11;;;;;;;9.82;1.65;;;6.40;99.90;;;;;;4952735;28;20414;-76
2023/12/30 03:09:37;;;;;;;7.75;1.80;;;6.40;99.90;;;;;;4963531;28;20502;-76
2023/12/30 03:12:03;;;;;;;10.50;1.70;;;6.40;99.90;;;;;;4975242;28;20482;-74
2023/12/30 03:14:28;;;;;;;13.73;2.00;;;6.40;99.90;;;;;;4955548;28;20479;-74
2023/12/30 03:16:54;;;;;;;13.70;2.30;;;6.40;99.90;;;;;;4957396;28;20059;-76
2023/12/30 03:19:19;;;;;;;11.25;1.70;;;6.40;99.90;;;;;;4958359;28;20075;-76
2023/12/30 03:21:45;;;;;;;11.60;2.10;;;6.40;99.90;;;;;;4963634;28;20394;-76
2023/12/30 03:24:11;;;;;;;9.68;1.85;;;6.40;99.90;;;;;;4963432;28;20039;-75
2023/12/30 03:26:37;;;;;;;12.57;1.90;;;6.30;99.90;;;;;;4955742;28;20054;-76
2023/12/30 03:29:03;;;;;;;7.00;1.75;;;6.30;99.90;;;;;;4951887;28;20047;-74
2023/12/30 03:31:28;;;;;;;10.02;2.03;;;6.30;99.90;;;;;;4952047;28;20078;-76
2023/12/30 03:33:55;;;;;;;9.68;2.22;;;6.30;99.90;;;;;;4961337;28;20051;-75
2023/12/30 03:36:21;;;;;;;8.30;1.50;;;6.30;99.90;;;;;;4980348;28;20497;-76
2023/12/30 03:38:48;;;;;;;11.88;2.83;;;6.30;99.90;;;;;;4955487;28;20070;-76
2023/12/30 03:41:14;;;;;;;13.15;1.70;;;6.20;99.90;;;;;;4955952;28;20050;-75
2023/12/30 03:43:40;;;;;;;10.75;1.92;;;6.30;99.90;;;;;;4974467;28;20494;-76
2023/12/30 03:46:05;;;;;;;11.82;1.85;;;6.20;99.90;;;;;;4952098;28;20050;-76
2023/12/30 03:48:32;;;;;;;10.55;1.80;;;6.20;99.90;;;;;;4960937;28;20034;-78
2023/12/30 03:50:57;;;;;;;12.98;1.90;;;6.20;99.90;;;;;;4966297;28;20043;-75
2023/12/30 03:53:23;;;;;;;9.85;2.30;;;6.20;99.90;;;;;;4957411;28;20514;-76
2023/12/30 03:55:48;;;;;;;16.50;2.17;;;6.20;99.90;;;;;;4955235;28;20102;-76
2023/12/30 03:58:14;;;;;;;12.77;2.08;;;6.10;99.90;;;;;;4977645;28;20054;-76
2023/12/30 04:00:39;;;;;;;9.68;1.90;;;6.10;99.90;;;;;;4955864;28;20046;-76
2023/12/30 04:03:05;;;;;;;11.48;2.05;;;6.10;99.90;;;;;;4963614;28;20039;-76
2023/12/30 04:05:30;;;;;;;7.93;1.90;;;6.10;99.90;;;;;;4966457;28;20073;-76
2023/12/30 04:07:56;;;;;;;11.90;1.77;;;6.00;99.90;;;;;;4960014;28;20070;-73
2023/12/30 04:10:21;;;;;;;14.30;2.10;;;6.00;99.90;;;;;;4960213;28;20054;-76
2023/12/30 04:12:47;;;;;;;13.93;1.80;;;6.00;99.90;;;;;;4956737;28;20036;-76
2023/12/30 04:15:13;;;;;;;11.32;2.10;;;6.00;99.90;;;;;;4966352;28;20039;-74
2023/12/30 04:17:38;;;;;;;8.48;2.75;;;6.00;99.90;;;;;;4976782;28;20138;-76
2023/12/30 04:20:05;;;;;;;10.30;2.45;;;5.90;99.90;;;;;;4974282;28;20092;-76
2023/12/30 04:22:31;;;;;;;13.15;2.10;;;5.90;99.90;;;;;;4985540;28;20065;-76
2023/12/30 04:24:57;;;;;;;12.77;1.85;;;5.90;99.90;;;;;;4956350;28;20058;-76
2023/12/30 04:27:23;;;;;;;13.52;2.05;;;5.80;99.90;;;;;;4962585;28;20055;-75
2023/12/30 04:29:48;;;;;;;8.68;1.90;;;5.90;99.90;;;;;;4961976;28;20074;-75
2023/12/30 04:32:14;;;;;;;6.60;1.52;;;5.90;99.90;;;;;;4967546;28;20081;-76
2023/12/30 04:34:40;;;;;;;12.65;2.65;;;5.90;99.90;;;;;;4972225;28;20039;-76
2023/12/30 04:37:05;;;;;;;13.13;2.00;;;5.90;99.90;;;;;;4963739;28;20067;-76
2023/12/30 04:39:31;;;;;;;13.48;2.10;;;5.90;99.90;;;;;;4968864;28;20039;-75
2023/12/30 04:41:56;;;;;;;13.75;2.00;;;5.80;99.90;;;;;;4960706;28;20055;-76
2023/12/30 04:44:22;;;;;;;10.93;2.28;;;5.90;99.90;;;;;;4970026;28;20082;-75
2023/12/30 04:46:47;;;;;;;15.95;2.33;;;5.90;99.90;;;;;;4959995;28;20046;-75
2023/12/30 04:49:13;;;;;;;12.50;1.80;;;5.90;99.90;;;;;;4970092;28;20080;-74
2023/12/30 04:51:39;;;;;;;14.98;2.15;;;5.90;99.90;;;;;;4972556;28;20126;-75
2023/12/30 04:54:05;;;;;;;10.13;1.58;;;5.90;99.90;;;;;;4975971;28;20034;-75
2023/12/30 04:56:31;;;;;;;11.27;2.13;;;5.90;99.90;;;;;;4964193;28;20039;-76
2023/12/30 04:58:57;;;;;;;11.73;1.88;;;5.90;99.90;;;;;;4978150;28;20051;-76
2023/12/30 05:01:23;;;;;;;11.77;2.13;;;5.90;99.90;;;;;;4964253;28;20122;-75
2023/12/30 05:03:49;;;;;;;13.02;2.15;;;5.90;99.90;;;;;;4960509;28;20047;-76
2023/12/30 05:06:22;;;;;;;9.10;1.90;;;5.90;99.90;;;;;;4957880;28;20047;-75
2023/12/30 05:08:49;;;;;;;9.10;1.67;;;5.90;99.90;;;;;;4964084;28;20053;-75
2023/12/30 05:11:14;;;;;;;8.52;2.20;;;5.90;99.90;;;;;;4964592;28;20035;-76
2023/12/30 05:13:41;;;;;;;16.00;2.00;;;5.90;99.90;;;;;;4954925;28;20174;-76
2023/12/30 05:16:07;;;;;;;9.25;1.90;;;5.90;99.90;;;;;;4959041;28;20047;-77
2023/12/30 05:18:32;;;;;;;13.20;1.90;;;5.90;99.90;;;;;;4965435;28;20039;-76
2023/12/30 05:20:58;;;;;;;12.80;2.25;;;5.90;99.90;;;;;;4961260;28;20043;-75
2023/12/30 05:23:23;;;;;;;9.68;1.73;;;5.90;99.90;;;;;;4965629;28;20405;-76
2023/12/30 05:25:49;;;;;;;9.93;2.00;;;5.80;99.90;;;;;;4961785;28;20094;-75
2023/12/30 05:28:15;;;;;;;13.52;2.22;;;5.90;99.90;;;;;;4969870;28;20098;-76
2023/12/30 05:30:40;;;;;;;15.00;2.03;;;5.90;99.90;;;;;;4953803;28;20053;-75
2023/12/30 05:33:07;;;;;;;20.50;2.10;;;5.90;99.90;;;;;;4965510;28;20043;-76
2023/12/30 05:35:33;;;;;;;11.73;2.50;;;5.90;99.90;;;;;;4977904;28;20542;-75
2023/12/30 05:37:59;;;;;;;11.60;1.92;;;5.90;99.90;;;;;;4958423;28;20035;-75
2023/12/30 05:40:24;;;;;;;10.27;1.65;;;5.90;99.90;;;;;;4985879;28;20387;-76
2023/12/30 05:42:50;;;;;;;10.48;2.22;;;5.80;99.90;;;;;;4980660;28;20078;-76
2023/12/30 05:45:15;;;;;;;14.50;2.42;;;5.90;99.90;;;;;;4969555;28;20538;-75
2023/12/30 05:47:41;;;;;;;14.70;2.35;;;5.90;99.90;;;;;;4964430;28;20047;-76
2023/12/30 05:50:07;;;;;;;11.38;2.05;;;5.90;99.90;;;;;;4962077;28;20487;-76
2023/12/30 05:52:34;;;;;;;8.65;1.75;;;5.90;99.90;;;;;;4958207;28;20069;-75
2023/12/30 05:54:59;;;;;;;9.27;1.75;;;5.90;99.90;;;;;;4972774;28;20043;-76
2023/12/30 05:57:25;;;;;;;10.77;2.30;;;5.90;99.90;;;;;;4959477;28;20043;-75
2023/12/30 05:59:50;;;;;;;14.23;1.85;;;5.90;99.90;;;;;;4964424;28;20035;-75
2023/12/30 06:02:16;;;;;;;11.40;1.80;;;5.90;99.90;;;;;;4963091;28;20414;-76
2023/12/30 06:04:42;;;;;;;13.40;2.47;;;5.80;99.90;;;;;;4963659;28;20047;-76
2023/12/30 06:07:08;;;;;;;12.38;2.28;;;5.80;99.90;;;;;;4977959;28;20492;-75
2023/12/30 06:09:34;;;;;;;9.65;1.92;;;5.80;99.90;;;;;;4964057;28;20405;-76
2023/12/30 06:11:59;;;;;;;12.50;2.33;;;5.80;99.90;;;;;;4965814;28;20039;-75
2023/12/30 06:14:25;;;;;;;12.10;2.10;;;5.80;99.90;;;;;;4963186;28;20049;-76
2023/12/30 06:16:51;;;;;;;11.55;2.03;;;5.80;99.90;;;;;;4968494;28;20047;-76
2023/12/30 06:19:16;;;;;;;15.50;2.08;;;5.80;99.90;;;;;;4966662;28;20048;-76
2023/12/30 06:21:42;;;;;;;11.02;2.17;;;5.80;99.90;;;;;;4960002;28;20182;-75
2023/12/30 06:24:09;;;;;;;17.13;2.67;;;5.70;99.90;;;;;;4954472;28;20046;-76
2023/12/30 06:26:41;;;;;;;10.15;2.15;;;5.70;99.90;;;;;;4968393;28;20101;-76
2023/12/30 06:29:07;;;;;;;13.23;2.30;;;5.70;99.90;;;;;;4980095;28;20082;-76
2023/12/30 06:31:33;;;;;;;14.38;2.08;;;5.70;99.90;;;;;;4962349;28;20053;-76
2023/12/30 06:33:59;;;;;;;12.73;1.98;;;5.70;99.90;;;;;;4968802;28;20121;-76
2023/12/30 06:36:25;;;;;;;13.35;1.88;;;5.70;99.90;;;;;;4947841;28;20121;-76
2023/12/30 06:38:51;;;;;;;12.57;2.13;;;5.70;99.90;;;;;;4979513;28;20043;-75
2023/12/30 06:41:20;;;;;;;15.05;1.92;;;5.70;99.90;;;;;;4970353;28;20130;-75
2023/12/30 06:43:46;;;;;;;11.65;2.25;;;5.70;99.90;;;;;;4961757;28;20047;-76
2023/12/30 06:46:12;;;;;;;11.23;1.80;;;5.70;99.90;;;;;;4968728;28;20039;-76
2023/12/30 06:48:37;;;;;;;10.93;2.15;;;4.90;99.90;;;;;;4957156;28;20142;-76
2023/12/30 06:51:03;;;;;;;14.70;1.73;;;5.70;99.90;;;;;;4966506;28;20046;-76
2023/12/30 06:53:32;;;;;;;13.38;1.90;;;5.70;99.90;;;;;;4963395;28;20043;-75
2023/12/30 06:56:01;;;;;;;12.18;2.38;;;5.70;99.90;;;;;;4964050;28;20467;-75
2023/12/30 06:58:30;;;;;;;9.88;1.70;;;5.70;99.90;;;;;;4964347;28;20039;-75
2023/12/30 07:00:56;;;;;;;10.55;1.90;;;5.70;99.90;;;;;;4964104;28;20035;-75
2023/12/30 07:03:22;;;;;;;11.95;1.90;;;5.60;99.90;;;;;;4965736;28;20054;-75
2023/12/30 07:05:47;;;;;;;10.20;2.00;;;5.60;99.90;;;;;;4962656;28;20035;-75
2023/12/30 07:08:13;;;;;;;9.38;1.92;;;5.60;99.90;;;;;;4970527;28;20097;-75
2023/12/30 07:10:39;;;;;;;8.93;2.00;;;5.60;99.90;;;;;;4960753;28;20066;-78
2023/12/30 07:13:06;;;;;;;15.00;2.45;;;5.60;99.90;;;;;;4970911;28;20042;-76
2023/12/30 07:15:31;;;;;;;12.80;1.60;;;5.60;99.90;;;;;;4963517;28;20445;-75
2023/12/30 07:17:57;;;;;;;12.70;2.15;;;5.60;99.90;;;;;;4961798;28;20039;-75
2023/12/30 07:20:23;;;;;;;11.95;2.15;;;5.60;99.90;;;;;;4983493;28;20099;-76
2023/12/30 07:22:49;;;;;;;12.30;2.15;;;5.60;99.90;;;;;;4964973;28;20047;-76
2023/12/30 07:25:14;;;;;;;11.80;2.33;;;5.50;99.90;;;;;;4962756;28;20186;-76
2023/12/30 07:27:40;;;;;;;14.45;2.30;;;5.50;99.90;;;;;;4966117;28;20043;-75
2023/12/30 07:30:06;;;;;;;11.68;2.05;;;5.50;99.90;;;;;;4972441;28;20035;-75
2023/12/30 07:32:32;;;;;;;14.95;2.17;;;5.50;99.90;;;;;;4963791;28;20039;-75
2023/12/30 07:34:58;;;;;;;11.23;1.95;;;5.50;99.90;;;;;;4967901;28;20090;-77
2023/12/30 07:37:24;;;;;;;12.93;2.40;;;5.90;99.90;;;;;;4959418;28;20051;-75
2023/12/30 07:39:49;;;;;;;14.55;2.35;;;5.40;99.90;;;;;;4969133;28;20050;-77
2023/12/30 07:42:18;;;;;;;9.07;2.05;;;5.40;99.90;;;;;;4962732;28;20371;-77
2023/12/30 07:44:44;;;;;;;18.02;2.30;;;5.40;99.90;;;;;;4964257;28;20565;-75
2023/12/30 07:47:09;;;;;;;12.13;1.85;;;5.40;99.90;;;;;;4967449;28;20133;-77
2023/12/30 07:49:35;;;;;;;11.38;2.63;;;5.40;99.90;;;;;;4969614;28;20081;-77
2023/12/30 07:52:02;;;;;;;14.77;2.75;;;5.40;99.90;;;;;;4970871;28;20047;-77
2023/12/30 07:54:27;;;;;;;9.27;1.80;;;5.40;99.90;;;;;;4968855;28;20046;-77
2023/12/30 07:56:53;;;;;;;11.45;2.03;;;5.40;99.90;;;;;;4967298;28;20502;-77
2023/12/30 07:59:19;;;;;;;11.32;1.80;;;5.40;99.90;;;;;;4958865;28;20038;-77
2023/12/30 08:01:44;;;;;;;12.65;2.20;;;5.40;99.90;;;;;;4971090;28;20050;-77
2023/12/30 08:04:11;;;;;;;12.60;2.70;;;5.40;99.90;;;;;;4969767;28;20062;-77
2023/12/30 08:06:38;;;;;;;13.07;1.95;;;5.40;99.90;;;;;;4986151;28;20058;-76
2023/12/30 08:09:04;;;;;;;13.80;2.35;;;5.40;99.90;;;;;;4977056;28;20090;-77
2023/12/30 08:11:29;;;;;;;11.05;1.83;;;5.40;99.90;;;;;;4972235;28;20108;-76
2023/12/30 08:13:55;;;;;;;9.68;1.92;;;5.40;99.90;;;;;;4986055;28;20482;-76
2023/12/30 08:16:20;;;;;;;15.23;2.20;;;5.40;99.90;;;;;;4967532;28;20042;-76
2023/12/30 08:18:48;;;;;;;9.55;1.98;;;5.40;99.90;;;;;;4960826;28;20419;-77
2023/12/30 08:21:14;;;;;;;15.13;1.88;;;5.40;99.90;;;;;;4964004;28;21353;-76
2023/12/30 08:23:39;;;;;;;15.07;1.80;;;5.50;99.90;;;;;;4963678;28;20035;-76
2023/12/30 08:26:05;;;;;;;9.18;1.85;;;5.50;99.90;;;;;;4964689;28;20031;-77
2023/12/30 08:28:31;;;;;;;10.55;2.00;;;5.50;99.90;;;;;;4960318;28;20130;-76
2023/12/30 08:30:59;;;;;;;16.63;2.42;;;5.50;99.90;;;;;;4971610;28;20581;-77
2023/12/30 08:33:25;;;;;;;15.10;2.33;;;5.50;99.90;;;;;;4965676;28;20525;-77
2023/12/30 08:35:50;;;;;;;14.55;1.92;;;5.50;99.90;;;;;;4969616;28;20073;-77
2023/12/30 08:38:16;;;;;;;13.70;2.03;;;5.60;99.90;;;;;;4968546;28;20083;-75
2023/12/30 08:40:42;;;;;;;10.98;1.77;;;5.60;99.90;;;;;;4966693;28;20034;-75
2023/12/30 08:43:08;;;;;;;9.90;1.65;;;5.60;99.90;;;;;;4961918;28;20499;-76
2023/12/30 08:45:34;;;;;;;14.13;2.45;;;5.60;99.90;;;;;;4959105;28;20035;-76
2023/12/30 08:48:00;;;;;;;9.65;1.70;;;5.60;99.90;;;;;;4976340;28;20047;-76
2023/12/30 08:50:26;;;;;;;14.60;2.15;;;5.60;99.90;;;;;;4976480;28;20054;-76
2023/12/30 08:52:51;;;;;;;4.80;1.60;;;5.70;99.90;;;;;;4968398;28;20042;-77
2023/12/30 08:55:17;;;;;;;10.00;1.90;;;5.70;99.90;;;;;;4974481;28;20397;-76
2023/12/30 08:57:43;;;;;;;9.90;2.22;;;5.80;99.90;;;;;;4955941;28;20039;-76
2023/12/30 09:00:09;;;;;;;15.68;2.22;;;5.70;99.90;;;;;;4986201;28;20039;-76
2023/12/30 09:02:38;;;;;;;8.82;2.20;;;5.70;99.90;;;;;;4965349;28;20047;-77
2023/12/30 09:05:05;;;;;;;15.90;2.25;;;5.70;99.90;;;;;;4963727;28;20151;-78
2023/12/30 09:07:31;;;;;;;9.10;1.58;;;5.80;99.90;;;;;;4964091;28;20050;-77
2023/12/30 09:09:58;;;;;;;6.28;1.50;;;5.80;99.90;;;;;;4977587;28;20166;-76
2023/12/30 09:12:24;;;;;;;11.05;1.85;;;5.80;99.90;;;;;;4989313;28;20438;-77
2023/12/30 09:14:49;;;;;;;12.02;2.17;;;5.90;99.90;;;;;;4973053;28;20124;-77
2023/12/30 09:17:15;;;;;;;12.60;2.30;;;5.90;99.90;;;;;;4969801;28;20049;-74
2023/12/30 09:19:40;;;;;;;10.68;2.17;;;5.90;99.90;;;;;;4969227;28;20039;-76
2023/12/30 09:22:07;;;;;;;13.63;2.25;;;5.90;99.90;;;;;;4970565;28;20055;-77
2023/12/30 09:24:33;;;;;;;12.88;2.53;;;5.90;99.90;;;;;;4980069;28;20058;-77
2023/12/30 09:26:59;;;;;;;12.77;2.88;;;5.90;99.90;;;;;;4973688;28;20117;-77
2023/12/30 09:29:24;;;;;;;17.00;2.55;;;5.90;99.90;;;;;;4968152;28;20177;-77
2023/12/30 09:31:50;;;;;;;14.70;3.08;;;5.90;99.90;;;;;;4972419;28;20050;-76
2023/12/30 09:34:16;;;;;;;11.48;3.15;;;5.90;99.90;;;;;;4963120;28;20034;-76
2023/12/30 09:36:41;;;;;;;12.40;2.58;;;5.90;99.90;;;;;;4967150;28;20398;-76
2023/12/30 09:39:10;;;;;;;13.52;3.40;;;5.90;99.90;;;;;;4986289;28;20125;-77
2023/12/30 09:41:39;;;;;;;11.30;2.67;;;6.00;99.90;;;;;;4976438;28;20128;-79
2023/12/30 09:44:06;;;;;;;14.75;3.30;;;6.00;99.90;;;;;;4972368;28;20113;-77
2023/12/30 09:46:35;;;;;;;9.95;2.75;;;6.00;99.90;;;;;;4970909;28;20479;-76
2023/12/30 09:49:03;;;;;;;15.00;2.97;;;6.00;99.90;;;;;;4974164;28;20043;-77
2023/12/30 09:51:30;;;;;;;10.48;3.05;;;6.00;99.90;;;;;;4965551;28;20085;-76
2023/12/30 09:53:56;;;;;;;14.38;3.08;;;6.00;99.90;;;;;;4958610;28;20031;-76
2023/12/30 09:56:24;;;;;;;15.38;3.28;;;6.10;99.90;;;;;;4971921;28;20122;-77
2023/12/30 09:58:49;;;;;;;19.48;3.45;;;6.10;99.90;;;;;;4988475;28;20036;-77
2023/12/30 10:01:16;;;;;;;14.98;3.70;;;6.10;99.90;;;;;;4986624;28;20110;-77
2023/12/30 10:03:42;;;;;;;19.73;4.20;;;6.10;99.90;;;;;;4969894;28;20049;-77
2023/12/30 10:06:11;;;;;;;14.15;3.90;;;6.10;99.90;;;;;;4975530;28;20457;-76
2023/12/30 10:08:37;;;;;;;21.15;4.88;;;6.20;99.90;;;;;;4977307;28;20499;-76
2023/12/30 10:11:08;;;;;;;17.58;5.18;;;6.20;99.90;;;;;;4946418;28;20134;-76
2023/12/30 10:13:38;;;;;;;17.33;5.57;;;6.30;99.90;;;;;;4965474;28;20043;-76
2023/12/30 10:16:08;;;;;;;20.73;6.57;;;6.30;99.90;;;;;;4970381;28;20438;-76
2023/12/30 10:18:35;;;;;;;23.35;7.45;;;6.40;99.90;;;;;;4970928;28;20521;-76
2023/12/30 10:21:03;;;;;;;24.30;7.45;;;6.40;99.90;;;;;;4954766;28;20057;-76
2023/12/30 10:23:30;;;;;;;19.88;6.97;;;6.40;99.90;;;;;;4970323;28;20096;-76
2023/12/30 10:25:56;;;;;;;16.65;6.60;;;6.40;99.90;;;;;;4966011;28;20078;-77
2023/12/30 10:28:22;;;;;;;24.10;7.25;;;6.50;99.90;;;;;;4984875;28;20797;-77
2023/12/30 10:30:48;;;;;;;20.42;6.93;;;6.50;99.90;;;;;;4973792;28;20104;-76
2023/12/30 10:33:14;;;;;;;19.20;6.15;;;6.60;99.90;;;;;;4975751;28;20047;-76
2023/12/30 10:35:42;;;;;;;16.50;6.40;;;6.60;99.90;;;;;;4964711;28;20593;-76
2023/12/30 10:38:08;;;;;;;24.80;6.60;;;6.60;99.90;;;;;;4974215;28;20069;-76
2023/12/30 10:40:34;;;;;;;18.67;5.57;;;6.60;99.90;;;;;;4972424;28;20061;-76
2023/12/30 10:43:01;;;;;;;17.00;6.13;;;6.70;99.90;;;;;;4962061;28;20051;-76
2023/12/30 10:45:26;;;;;;;15.88;4.95;;;6.70;99.90;;;;;;4963136;28;20047;-77
2023/12/30 10:47:55;;;;;;;19.92;4.93;;;6.70;99.90;;;;;;4981532;28;20050;-76
2023/12/30 10:50:22;;;;;;;17.58;4.97;;;6.80;99.90;;;;;;4964981;28;20122;-76
2023/12/30 10:52:56;;;;;;;18.35;4.75;;;6.80;99.90;;;;;;4963239;28;20070;-76
2023/12/30 10:55:27;;;;;;;17.27;5.03;;;6.80;99.90;;;;;;4961210;28;20726;-76
2023/12/30 10:58:03;;;;;;;15.93;4.07;;;6.90;99.90;;;;;;4971322;28;20058;-76
2023/12/30 11:00:35;;;;;;;20.83;4.55;;;6.90;99.90;;;;;;4983064;28;20085;-76
2023/12/30 11:03:02;;;;;;;15.73;4.00;;;7.00;99.90;;;;;;4970741;28;20506;-76
2023/12/30 11:05:34;;;;;;;10.57;3.58;;;7.00;99.90;;;;;;4963879;28;20274;-76
2023/12/30 11:08:00;;;;;;;13.40;2.97;;;7.00;99.90;;;;;;4966534;28;20038;-76
2023/12/30 11:10:27;;;;;;;16.02;3.60;;;7.10;99.90;;;;;;4961850;28;20051;-76
2023/12/30 11:12:53;;;;;;;14.57;3.58;;;7.10;99.90;;;;;;4968859;28;20039;-76
2023/12/30 11:15:26;;;;;;;14.93;3.25;;;7.10;99.90;;;;;;4962507;28;20551;-76
2023/12/30 11:17:51;;;;;;;22.40;4.20;;;7.20;99.90;;;;;;4970693;28;20043;-76
2023/12/30 11:20:31;;;;;;;13.27;3.30;;;7.20;99.90;;;;;;4964094;28;20046;-76
2023/12/30 11:23:02;;;;;;;11.73;2.90;;;7.20;99.90;;;;;;4961854;28;20121;-76
2023/12/30 11:25:37;;;;;;;14.23;3.80;;;7.30;99.90;;;;;;4962816;28;20046;-76
2023/12/30 11:28:21;;;;;;;13.48;3.35;;;7.30;99.90;;;;;;4978837;28;20043;-76
2023/12/30 11:30:56;;;;;;;14.85;3.60;;;7.30;99.90;;;;;;4973524;28;20511;-76
2023/12/30 11:33:22;;;;;;;14.95;4.35;;;7.40;99.90;;;;;;4965695;28;20109;-76
2023/12/30 11:35:56;;;;;;;14.68;4.15;;;7.40;99.90;;;;;;4965129;28;20122;-76
2023/12/30 11:38:24;;;;;;;16.83;4.28;;;7.50;99.90;;;;;;4975928;28;20054;-76
2023/12/30 11:40:57;;;;;;;19.27;4.57;;;7.50;99.90;;;;;;4964846;28;20069;-76
2023/12/30 11:43:25;;;;;;;22.40;4.43;;;7.60;99.90;;;;;;4973186;28;20418;-76
2023/12/30 11:45:51;;;;;;;16.10;4.03;;;7.60;99.90;;;;;;4963215;28;20050;-76
2023/12/30 11:48:17;;;;;;;19.70;3.58;;;7.60;99.90;;;;;;4970294;28;20084;-76
2023/12/30 11:50:42;;;;;;;16.80;3.72;;;7.60;99.90;;;;;;4962385;28;20117;-76
2023/12/30 11:53:08;;;;;;;17.00;4.32;;;7.70;99.90;;;;;;4968732;28;20038;-76
2023/12/30 11:55:34;;;;;;;16.40;3.63;;;7.70;99.90;;;;;;4954517;28;20131;-76
2023/12/30 11:57:59;;;;;;;15.23;4.50;;;7.70;99.90;;;;;;4982704;28;20049;-76
2023/12/30 12:00:26;;;;;;;16.02;3.58;;;7.70;99.90;;;;;;4969107;28;20097;-76
2023/12/30 12:02:52;;;;;;;21.52;4.03;;;7.70;99.90;;;;;;4963430;28;20468;-76
2023/12/30 12:05:18;;;;;;;18.67;4.47;;;7.70;99.90;;;;;;4960032;28;20039;-76
2023/12/30 12:07:44;;;;;;;14.85;4.05;;;7.70;99.90;;;;;;4967415;28;20042;-76
2023/12/30 12:10:10;;;;;;;15.85;4.00;;;7.70;99.90;;;;;;4967053;28;20075;-76
2023/12/30 12:12:42;;;;;;;19.88;5.07;;;7.70;99.90;;;;;;4966354;28;20109;-76
2023/12/30 12:15:08;;;;;;;19.23;4.80;;;7.70;99.90;;;;;;4962354;28;20482;-76
2023/12/30 12:17:35;;;;;;;19.38;4.45;;;7.80;99.90;;;;;;4977989;28;20104;-76
2023/12/30 12:20:04;;;;;;;13.07;4.18;;;7.80;99.90;;;;;;4968475;28;20043;-76
2023/12/30 12:22:30;;;;;;;18.83;5.18;;;7.80;99.90;;;;;;4972560;28;20054;-76
2023/12/30 12:24:56;;;;;;;14.43;4.07;;;7.80;99.90;;;;;;4967744;28;20043;-76
2023/12/30 12:27:23;;;;;;;26.50;5.35;;;7.90;99.90;;;;;;4977139;28;20070;-76
2023/12/30 12:29:50;;;;;;;20.58;5.30;;;7.90;99.90;;;;;;4975321;28;20046;-76
2023/12/30 12:32:23;;;;;;;20.45;4.60;;;7.90;99.90;;;;;;4986791;28;20397;-76
2023/12/30 12:34:50;;;;;;;15.32;4.82;;;7.90;99.90;;;;;;4971526;28;20042;-76
2023/12/30 12:37:16;;;;;;;22.85;5.20;;;7.90;99.90;;;;;;4963093;28;20398;-76
2023/12/30 12:39:43;;;;;;;20.10;4.90;;;8.00;99.90;;;;;;4969098;28;20134;-76
2023/12/30 12:42:10;;;;;;;17.52;6.18;;;8.00;99.90;;;;;;4970429;28;20050;-76
2023/12/30 12:44:36;;;;;;;21.73;5.97;;;8.00;99.90;;;;;;4968052;28;20086;-76
2023/12/30 12:47:01;;;;;;;34.95;13.02;;;8.00;99.90;;;;;;4987938;28;20114;-76